Neuburg — 5BQJ2 — position and weather

sailwx.info

Track history (hours):
 
Tides and Currents Weather Stations Pressure Air Temp Water Temp Dewpoint Dewpoint Depression Visibility Wind Speed Wind Dir Waves Ship Positions

Neuburg

Last reported at 2015-Apr-18 19:33 UTC. Time now 2015-Apr-18 23:39 UTC.
Position N 35°58' W 005°35'.

Length 142 m; draft 7.4 m.

Type: Cargo ship. MMSI: 212740000.

Date/timePositionNaut miles runAvg speedWind from/ knotsBaromVisibWave heightAir tempDewpointWater temp
2015-Apr-18 19:33N 35°58' W 005°35'1414.0
2015-Apr-18 18:33N 36°01' W 005°18'21416.5
2015-Apr-18 05:33N 37°12' W 001°06'1414.4
2015-Apr-18 04:33N 37°22' W 000°52'1514.6
2015-Apr-18 03:33N 37°31' W 000°39'1211.7
2015-Apr-18 02:33N 37°41' W 000°31'1212.0
2015-Apr-18 01:33N 37°53' W 000°27'1110.7
2015-Apr-18 00:33N 38°03' W 000°24'10 9.7
2015-Apr-17 23:32N 38°13' W 000°25'2 0.1
2015-Apr-17 04:33N 38°15' W 000°26'6 6.2
2015-Apr-17 03:33N 38°10' W 000°23'1211.8
2015-Apr-17 02:33N 37°58' W 000°25'1313.2
2015-Apr-17 01:33N 37°45' W 000°28'1413.6
2015-Apr-17 00:33N 37°32' W 000°33'1414.0
2015-Apr-16 23:33N 37°23' W 000°46'1414.0
2015-Apr-16 22:33N 37°14' W 000°59'21514.0
2015-Apr-16 07:12N 36°00' W 005°10'1117.6
2015-Apr-16 06:33N 35°58' W 005°24'64317.3
2015-Apr-14 17:22N 29°03' W 015°05'1417.6
2015-Apr-14 16:33N 28°56' W 015°20'1717.3
2015-Apr-14 15:33N 28°48' W 015°37'1717.2
2015-Apr-14 14:33N 28°39' W 015°54'1717.0
2015-Apr-14 13:33N 28°29' W 016°10'3 1.4
2015-Apr-14 11:19N 28°29' W 016°13'0 0.0
2015-Apr-14 07:19N 28°29' W 016°13'0 0.0
2015-Apr-14 06:07N 28°29' W 016°13'0 0.0
2015-Apr-14 05:33N 28°29' W 016°13'7 7.3
2015-Apr-14 04:33N 28°27' W 016°06'1312.8
2015-Apr-14 03:33N 28°21' W 015°52'1312.9
2015-Apr-14 02:33N 28°18' W 015°38'1313.2
2015-Apr-14 01:33N 28°14' W 015°24'6 5.3
2015-Apr-14 00:20N 28°08' W 015°25'0 0.0
2015-Apr-13 23:32N 28°08' W 015°25'0 0.0
2015-Apr-13 22:32N 28°08' W 015°25'0 0.0
2015-Apr-13 21:23N 28°08' W 015°25'0 0.0
2015-Apr-13 20:23N 28°08' W 015°25'0 0.0
2015-Apr-13 19:20N 28°08' W 015°25'0 0.0
2015-Apr-13 18:26N 28°08' W 015°25'0 0.0
2015-Apr-13 17:26N 28°08' W 015°25'0 0.0
2015-Apr-13 16:26N 28°08' W 015°25'0 0.0
2015-Apr-13 15:26N 28°08' W 015°25'0 0.0
2015-Apr-13 14:29N 28°08' W 015°25'0 0.0
2015-Apr-13 13:29N 28°08' W 015°25'0 0.0
2015-Apr-13 12:29N 28°08' W 015°25'1 0.8
2015-Apr-13 11:33N 28°07' W 015°25'1110.6
2015-Apr-13 10:33N 28°14' W 015°15'1515.1
2015-Apr-13 09:34N 28°24' W 015°03'1515.4
2015-Apr-13 08:34N 28°35' W 014°50'64617.2
2015-Apr-11 19:05N 35°58' W 005°34'917.3
2015-Apr-11 18:33N 36°00' W 005°23'21117.3
2015-Apr-11 06:22N 37°07' W 001°14'1417.5
2015-Apr-11 05:33N 37°16' W 001°00'1817.7
2015-Apr-11 04:33N 37°28' W 000°43'1717.0
2015-Apr-11 03:34N 37°42' W 000°31'1817.9
2015-Apr-11 02:33N 37°59' W 000°26'1716.5
2015-Apr-11 01:33N 38°16' W 000°27'12 0.8
2015-Apr-10 10:34N 38°04' W 000°24'1716.6
2015-Apr-10 09:33N 37°48' W 000°28'1616.1
2015-Apr-10 08:33N 37°32' W 000°33'1616.4
2015-Apr-10 07:33N 37°21' W 000°48'1716.6
2015-Apr-10 06:33N 37°10' W 001°04'20916.0
2015-Apr-09 17:27N 35°60' W 005°09'1718.1
2015-Apr-09 16:31N 35°57' W 005°30'  
Track history (hours):
 
Tides and Currents Weather Stations Pressure Air Temp Water Temp Dewpoint Dewpoint Depression Visibility Wind Speed Wind Dir Waves Ship Positions

Neuburg

Last reported at 2015-Apr-18 19:33 UTC. Time now 2015-Apr-18 23:39 UTC.
Position N 35°58' W 005°35'.

Length 142 m; draft 7.4 m.

Type: Cargo ship. MMSI: 212740000.

Date/timePositionNaut miles runAvg speedWind from/ knotsBaromVisibWave heightAir tempDewpointWater temp
2015-Apr-18 19:33N 35°58' W 005°35'1414.0
2015-Apr-18 18:33N 36°01' W 005°18'21416.5
2015-Apr-18 05:33N 37°12' W 001°06'1414.4
2015-Apr-18 04:33N 37°22' W 000°52'1514.6
2015-Apr-18 03:33N 37°31' W 000°39'1211.7
2015-Apr-18 02:33N 37°41' W 000°31'1212.0
2015-Apr-18 01:33N 37°53' W 000°27'1110.7
2015-Apr-18 00:33N 38°03' W 000°24'10 9.7
2015-Apr-17 23:32N 38°13' W 000°25'2 0.1
2015-Apr-17 04:33N 38°15' W 000°26'6 6.2
2015-Apr-17 03:33N 38°10' W 000°23'1211.8
2015-Apr-17 02:33N 37°58' W 000°25'1313.2
2015-Apr-17 01:33N 37°45' W 000°28'1413.6
2015-Apr-17 00:33N 37°32' W 000°33'1414.0
2015-Apr-16 23:33N 37°23' W 000°46'1414.0
2015-Apr-16 22:33N 37°14' W 000°59'21514.0
2015-Apr-16 07:12N 36°00' W 005°10'1117.6
2015-Apr-16 06:33N 35°58' W 005°24'64317.3
2015-Apr-14 17:22N 29°03' W 015°05'1417.6
2015-Apr-14 16:33N 28°56' W 015°20'1717.3
2015-Apr-14 15:33N 28°48' W 015°37'1717.2
2015-Apr-14 14:33N 28°39' W 015°54'1717.0
2015-Apr-14 13:33N 28°29' W 016°10'3 1.4
2015-Apr-14 11:19N 28°29' W 016°13'0 0.0
2015-Apr-14 07:19N 28°29' W 016°13'0 0.0
2015-Apr-14 06:07N 28°29' W 016°13'0 0.0
2015-Apr-14 05:33N 28°29' W 016°13'7 7.3
2015-Apr-14 04:33N 28°27' W 016°06'1312.8
2015-Apr-14 03:33N 28°21' W 015°52'1312.9
2015-Apr-14 02:33N 28°18' W 015°38'1313.2
2015-Apr-14 01:33N 28°14' W 015°24'6 5.3
2015-Apr-14 00:20N 28°08' W 015°25'0 0.0
2015-Apr-13 23:32N 28°08' W 015°25'0 0.0
2015-Apr-13 22:32N 28°08' W 015°25'0 0.0
2015-Apr-13 21:23N 28°08' W 015°25'0 0.0
2015-Apr-13 20:23N 28°08' W 015°25'0 0.0
2015-Apr-13 19:20N 28°08' W 015°25'0 0.0
2015-Apr-13 18:26N 28°08' W 015°25'0 0.0
2015-Apr-13 17:26N 28°08' W 015°25'0 0.0
2015-Apr-13 16:26N 28°08' W 015°25'0 0.0
2015-Apr-13 15:26N 28°08' W 015°25'0 0.0
2015-Apr-13 14:29N 28°08' W 015°25'0 0.0
2015-Apr-13 13:29N 28°08' W 015°25'0 0.0
2015-Apr-13 12:29N 28°08' W 015°25'1 0.8
2015-Apr-13 11:33N 28°07' W 015°25'1110.6
2015-Apr-13 10:33N 28°14' W 015°15'1515.1
2015-Apr-13 09:34N 28°24' W 015°03'1515.4
2015-Apr-13 08:34N 28°35' W 014°50'64617.2
2015-Apr-11 19:05N 35°58' W 005°34'917.3
2015-Apr-11 18:33N 36°00' W 005°23'21117.3
2015-Apr-11 06:22N 37°07' W 001°14'1417.5
2015-Apr-11 05:33N 37°16' W 001°00'1817.7
2015-Apr-11 04:33N 37°28' W 000°43'1717.0
2015-Apr-11 03:34N 37°42' W 000°31'1817.9
2015-Apr-11 02:33N 37°59' W 000°26'1716.5
2015-Apr-11 01:33N 38°16' W 000°27'12 0.8
2015-Apr-10 10:34N 38°04' W 000°24'1716.6
2015-Apr-10 09:33N 37°48' W 000°28'1616.1
2015-Apr-10 08:33N 37°32' W 000°33'1616.4
2015-Apr-10 07:33N 37°21' W 000°48'1716.6
2015-Apr-10 06:33N 37°10' W 001°04'20916.0
2015-Apr-09 17:27N 35°60' W 005°09'1718.1
2015-Apr-09 16:31N 35°57' W 005°30'  

Dump ship's entire track history